Terminal Aerodrome Forecast
Issued by NWS Buffalo, NY

Home | Current Version | Previous Version | Text Only | Print | Product List | Glossary On
Versions: 1 2 3 4 5 6 7 8 9 10 11 12 13 14 15 16 17 18 19 20 21 22 23 24 25
000
FTUS41 KBUF 201100
TAFART
TAF
KART 201135Z 2012/2112 19014G20KT P6SM SCT025 BKN045
      TEMPO 2012/2015 BKN025
     FM201500 20017G27KT P6SM SCT025 BKN035
     FM201800 20017G27KT P6SM BKN250
     FM210000 19015G25KT P6SM SCT035 BKN050
     FM210400 19015KT P6SM SCT025 BKN045
     FM210900 20015KT P6SM VCSH SCT025 BKN035=

USA.gov is the U.S. government's official web portal to all federal, state and local government web resources and services.